sensor_id;sensor_type;location;lat;lon;timestamp;pressure;altitude;pressure_sealevel;temperature;humidity
76124;BME280;65173;48.066;20.976;2023-08-17T00:02:53;100708.25;;;21.19;100.00
76124;BME280;65173;48.066;20.976;2023-08-17T00:05:56;100715.19;;;21.16;100.00
76124;BME280;65173;48.066;20.976;2023-08-17T00:08:58;100713.22;;;21.09;100.00
76124;BME280;65173;48.066;20.976;2023-08-17T00:12:01;100708.44;;;20.99;100.00
76124;BME280;65173;48.066;20.976;2023-08-17T00:15:04;100715.00;;;20.98;100.00
76124;BME280;65173;48.066;20.976;2023-08-17T00:18:08;100714.59;;;20.93;100.00
76124;BME280;65173;48.066;20.976;2023-08-17T00:21:10;100715.25;;;20.83;100.00
76124;BME280;65173;48.066;20.976;2023-08-17T00:24:13;100708.63;;;20.80;100.00
76124;BME280;65173;48.066;20.976;2023-08-17T00:27:15;100715.28;;;20.86;100.00
76124;BME280;65173;48.066;20.976;2023-08-17T00:30:18;100712.44;;;20.72;100.00
76124;BME280;65173;48.066;20.976;2023-08-17T00:33:21;100705.09;;;20.72;100.00
76124;BME280;65173;48.066;20.976;2023-08-17T00:36:23;100713.06;;;20.62;100.00
76124;BME280;65173;48.066;20.976;2023-08-17T00:39:26;100705.41;;;20.67;100.00
76124;BME280;65173;48.066;20.976;2023-08-17T00:42:28;100703.56;;;20.75;100.00
76124;BME280;65173;48.066;20.976;2023-08-17T00:45:31;100700.50;;;20.80;100.00
76124;BME280;65173;48.066;20.976;2023-08-17T00:48:34;100704.75;;;20.77;100.00
76124;BME280;65173;48.066;20.976;2023-08-17T00:51:37;100693.16;;;20.77;100.00
76124;BME280;65173;48.066;20.976;2023-08-17T00:54:41;100697.38;;;20.74;100.00
76124;BME280;65173;48.066;20.976;2023-08-17T00:57:44;100696.59;;;20.74;100.00
76124;BME280;65173;48.066;20.976;2023-08-17T01:00:46;100693.16;;;20.77;100.00
76124;BME280;65173;48.066;20.976;2023-08-17T01:03:49;100698.53;;;20.73;100.00
76124;BME280;65173;48.066;20.976;2023-08-17T01:06:52;100692.59;;;20.64;100.00
76124;BME280;65173;48.066;20.976;2023-08-17T01:09:54;100701.09;;;20.63;100.00
76124;BME280;65173;48.066;20.976;2023-08-17T01:13:21;100701.44;;;20.58;100.00
76124;BME280;65173;48.066;20.976;2023-08-17T01:16:33;100698.84;;;20.68;100.00
76124;BME280;65173;48.066;20.976;2023-08-17T01:19:38;100702.75;;;20.71;100.00
76124;BME280;65173;48.066;20.976;2023-08-17T01:22:41;100695.81;;;20.73;100.00
76124;BME280;65173;48.066;20.976;2023-08-17T01:25:45;100698.03;;;20.64;100.00
76124;BME280;65173;48.066;20.976;2023-08-17T01:28:47;100698.06;;;20.68;100.00
76124;BME280;65173;48.066;20.976;2023-08-17T01:32:16;100691.53;;;20.72;100.00
76124;BME280;65173;48.066;20.976;2023-08-17T01:38:30;100694.00;;;20.21;100.00
76124;BME280;65173;48.066;20.976;2023-08-17T01:41:34;100691.38;;;20.28;100.00
76124;BME280;65173;48.066;20.976;2023-08-17T01:44:39;100691.75;;;20.27;100.00
76124;BME280;65173;48.066;20.976;2023-08-17T01:47:42;100696.97;;;20.39;100.00
76124;BME280;65173;48.066;20.976;2023-08-17T01:50:44;100695.22;;;20.24;100.00
76124;BME280;65173;48.066;20.976;2023-08-17T01:53:46;100693.25;;;19.94;100.00
76124;BME280;65173;48.066;20.976;2023-08-17T01:56:49;100699.56;;;20.02;100.00
76124;BME280;65173;48.066;20.976;2023-08-17T01:59:53;100686.53;;;20.11;100.00
76124;BME280;65173;48.066;20.976;2023-08-17T02:02:55;100681.94;;;20.15;100.00
76124;BME280;65173;48.066;20.976;2023-08-17T02:05:59;100694.34;;;20.16;100.00
76124;BME280;65173;48.066;20.976;2023-08-17T02:09:02;100694.69;;;20.15;100.00
76124;BME280;65173;48.066;20.976;2023-08-17T02:12:05;100696.72;;;20.21;100.00
76124;BME280;65173;48.066;20.976;2023-08-17T02:15:08;100694.34;;;20.16;100.00
76124;BME280;65173;48.066;20.976;2023-08-17T02:18:10;100688.41;;;20.07;100.00
76124;BME280;65173;48.066;20.976;2023-08-17T02:21:13;100693.19;;;20.17;100.00
76124;BME280;65173;48.066;20.976;2023-08-17T02:24:15;100688.19;;;20.19;100.00
76124;BME280;65173;48.066;20.976;2023-08-17T02:27:18;100692.00;;;20.15;100.00
76124;BME280;65173;48.066;20.976;2023-08-17T02:30:20;100695.97;;;19.94;100.00
76124;BME280;65173;48.066;20.976;2023-08-17T02:33:23;100687.25;;;20.08;100.00
76124;BME280;65173;48.066;20.976;2023-08-17T02:36:27;100683.44;;;20.13;100.00
76124;BME280;65173;48.066;20.976;2023-08-17T02:39:30;100673.41;;;20.13;100.00
76124;BME280;65173;48.066;20.976;2023-08-17T02:42:32;100675.66;;;20.07;100.00
76124;BME280;65173;48.066;20.976;2023-08-17T02:45:34;100674.84;;;20.03;100.00
76124;BME280;65173;48.066;20.976;2023-08-17T02:48:38;100672.91;;;20.04;100.00
76124;BME280;65173;48.066;20.976;2023-08-17T02:51:40;100677.75;;;19.91;100.00
76124;BME280;65173;48.066;20.976;2023-08-17T02:54:43;100681.16;;;19.85;100.00
76124;BME280;65173;48.066;20.976;2023-08-17T02:57:45;100676.41;;;19.78;100.00
76124;BME280;65173;48.066;20.976;2023-08-17T03:00:51;100677.03;;;19.94;100.00
76124;BME280;65173;48.066;20.976;2023-08-17T03:03:55;100678.47;;;19.85;100.00
76124;BME280;65173;48.066;20.976;2023-08-17T03:06:57;100682.34;;;19.87;100.00
76124;BME280;65173;48.066;20.976;2023-08-17T03:10:00;100679.28;;;19.62;100.00
76124;BME280;65173;48.066;20.976;2023-08-17T03:13:02;100682.66;;;19.56;100.00
76124;BME280;65173;48.066;20.976;2023-08-17T03:16:05;100682.03;;;19.66;100.00
76124;BME280;65173;48.066;20.976;2023-08-17T03:19:07;100693.06;;;19.80;100.00
76124;BME280;65173;48.066;20.976;2023-08-17T03:22:14;100681.94;;;19.85;100.00
76124;BME280;65173;48.066;20.976;2023-08-17T03:25:17;100683.91;;;19.88;100.00
76124;BME280;65173;48.066;20.976;2023-08-17T03:28:21;100673.19;;;19.95;100.00
76124;BME280;65173;48.066;20.976;2023-08-17T03:31:23;100673.59;;;19.97;100.00
76124;BME280;65173;48.066;20.976;2023-08-17T03:34:26;100683.69;;;20.00;100.00
76124;BME280;65173;48.066;20.976;2023-08-17T03:37:28;100685.25;;;20.01;100.00
76124;BME280;65173;48.066;20.976;2023-08-17T03:40:31;100684.84;;;19.99;100.00
76124;BME280;65173;48.066;20.976;2023-08-17T03:43:35;100685.63;;;20.00;100.00
76124;BME280;65173;48.066;20.976;2023-08-17T03:46:38;100689.41;;;19.95;100.00
76124;BME280;65173;48.066;20.976;2023-08-17T03:49:40;100684.09;;;20.02;100.00
76124;BME280;65173;48.066;20.976;2023-08-17T03:52:43;100683.03;;;20.10;100.00
76124;BME280;65173;48.066;20.976;2023-08-17T03:55:47;100678.88;;;20.17;100.00
76124;BME280;65173;48.066;20.976;2023-08-17T03:58:50;100666.91;;;20.18;100.00
76124;BME280;65173;48.066;20.976;2023-08-17T04:01:52;100672.00;;;20.26;100.00
76124;BME280;65173;48.066;20.976;2023-08-17T04:04:55;100675.84;;;20.22;100.00
76124;BME280;65173;48.066;20.976;2023-08-17T04:07:58;100679.19;;;20.11;100.00
76124;BME280;65173;48.066;20.976;2023-08-17T04:11:04;100676.69;;;20.29;100.00
76124;BME280;65173;48.066;20.976;2023-08-17T04:14:07;100686.75;;;20.29;100.00
76124;BME280;65173;48.066;20.976;2023-08-17T04:17:11;100681.13;;;20.41;100.00
76124;BME280;65173;48.066;20.976;2023-08-17T04:20:14;100682.00;;;20.49;100.00
76124;BME280;65173;48.066;20.976;2023-08-17T04:23:16;100683.91;;;20.48;100.00
76124;BME280;65173;48.066;20.976;2023-08-17T04:26:19;100676.28;;;20.57;100.00
76124;BME280;65173;48.066;20.976;2023-08-17T04:29:21;100675.22;;;20.35;100.00
76124;BME280;65173;48.066;20.976;2023-08-17T04:32:24;100678.69;;;20.32;100.00
76124;BME280;65173;48.066;20.976;2023-08-17T04:35:26;100680.72;;;20.39;100.00
76124;BME280;65173;48.066;20.976;2023-08-17T04:38:29;100681.91;;;20.41;100.00
76124;BME280;65173;48.066;20.976;2023-08-17T04:41:32;100688.78;;;20.35;100.00
76124;BME280;65173;48.066;20.976;2023-08-17T04:44:36;100697.41;;;20.15;100.00
76124;BME280;65173;48.066;20.976;2023-08-17T04:47:39;100701.00;;;20.26;100.00
76124;BME280;65173;48.066;20.976;2023-08-17T04:50:42;100705.88;;;20.13;100.00
76124;BME280;65173;48.066;20.976;2023-08-17T04:53:44;100711.34;;;20.17;100.00
76124;BME280;65173;48.066;20.976;2023-08-17T04:56:47;100704.06;;;20.21;100.00
76124;BME280;65173;48.066;20.976;2023-08-17T04:59:51;100700.81;;;20.38;100.00
76124;BME280;65173;48.066;20.976;2023-08-17T05:02:54;100697.50;;;20.22;100.00
76124;BME280;65173;48.066;20.976;2023-08-17T05:05:59;100696.97;;;20.39;100.00
76124;BME280;65173;48.066;20.976;2023-08-17T05:09:02;100690.53;;;20.51;100.00
76124;BME280;65173;48.066;20.976;2023-08-17T05:12:10;100687.28;;;20.71;100.00
76124;BME280;65173;48.066;20.976;2023-08-17T05:15:12;100695.44;;;20.75;100.00
76124;BME280;65173;48.066;20.976;2023-08-17T05:18:14;100696.66;;;20.81;100.00
76124;BME280;65173;48.066;20.976;2023-08-17T05:21:19;100700.72;;;21.01;100.00
76124;BME280;65173;48.066;20.976;2023-08-17T05:24:21;100688.31;;;21.00;100.00
76124;BME280;65173;48.066;20.976;2023-08-17T05:27:25;100684.09;;;21.03;100.00
76124;BME280;65173;48.066;20.976;2023-08-17T05:30:28;100683.81;;;21.15;100.00
76124;BME280;65173;48.066;20.976;2023-08-17T05:33:30;100680.56;;;21.39;100.00
76124;BME280;65173;48.066;20.976;2023-08-17T05:36:33;100679.09;;;21.53;100.00
76124;BME280;65173;48.066;20.976;2023-08-17T05:39:36;100677.63;;;21.62;100.00
76124;BME280;65173;48.066;20.976;2023-08-17T05:42:38;100679.56;;;21.62;100.00
76124;BME280;65173;48.066;20.976;2023-08-17T05:45:41;100683.50;;;21.75;100.00
76124;BME280;65173;48.066;20.976;2023-08-17T05:48:43;100689.81;;;21.93;100.00
76124;BME280;65173;48.066;20.976;2023-08-17T05:51:45;100689.91;;;22.00;100.00
76124;BME280;65173;48.066;20.976;2023-08-17T05:54:48;100682.63;;;22.19;100.00
76124;BME280;65173;48.066;20.976;2023-08-17T05:57:51;100686.09;;;22.23;100.00
76124;BME280;65173;48.066;20.976;2023-08-17T06:00:53;100682.97;;;22.13;100.00
76124;BME280;65173;48.066;20.976;2023-08-17T06:03:56;100686.91;;;22.20;100.00
76124;BME280;65173;48.066;20.976;2023-08-17T06:06:58;100684.56;;;22.22;100.00
76124;BME280;65173;48.066;20.976;2023-08-17T06:10:04;100684.16;;;22.23;100.00
76124;BME280;65173;48.066;20.976;2023-08-17T06:13:06;100698.78;;;21.97;100.00
76124;BME280;65173;48.066;20.976;2023-08-17T06:16:09;100697.25;;;22.00;100.00
76124;BME280;65173;48.066;20.976;2023-08-17T06:19:12;100700.81;;;22.14;100.00
76124;BME280;65173;48.066;20.976;2023-08-17T06:22:15;100705.56;;;22.35;100.00
76124;BME280;65173;48.066;20.976;2023-08-17T06:25:17;100697.84;;;22.48;100.00
76124;BME280;65173;48.066;20.976;2023-08-17T06:28:20;100695.22;;;22.73;100.00
76124;BME280;65173;48.066;20.976;2023-08-17T06:31:22;100690.25;;;23.03;100.00
76124;BME280;65173;48.066;20.976;2023-08-17T06:34:29;100695.31;;;23.05;100.00
76124;BME280;65173;48.066;20.976;2023-08-17T06:37:32;100699.56;;;23.02;100.00
76124;BME280;65173;48.066;20.976;2023-08-17T06:40:34;100687.91;;;23.37;100.00
76124;BME280;65173;48.066;20.976;2023-08-17T06:43:36;100690.66;;;23.41;100.00
76124;BME280;65173;48.066;20.976;2023-08-17T06:46:39;100683.25;;;23.45;100.00
76124;BME280;65173;48.066;20.976;2023-08-17T06:49:42;100672.00;;;23.53;100.00
76124;BME280;65173;48.066;20.976;2023-08-17T06:52:45;100677.00;;;23.66;100.00
76124;BME280;65173;48.066;20.976;2023-08-17T06:55:47;100682.50;;;23.55;100.00
76124;BME280;65173;48.066;20.976;2023-08-17T06:58:50;100690.59;;;23.83;100.00
76124;BME280;65173;48.066;20.976;2023-08-17T07:01:52;100687.03;;;24.01;100.00
76124;BME280;65173;48.066;20.976;2023-08-17T07:04:55;100685.41;;;24.32;100.00
76124;BME280;65173;48.066;20.976;2023-08-17T07:07:57;100693.16;;;24.37;100.00
76124;BME280;65173;48.066;20.976;2023-08-17T07:11:01;100698.13;;;24.56;100.00
76124;BME280;65173;48.066;20.976;2023-08-17T07:14:05;100703.81;;;24.86;100.00
76124;BME280;65173;48.066;20.976;2023-08-17T07:17:08;100709.25;;;24.90;100.00
76124;BME280;65173;48.066;20.976;2023-08-17T07:20:11;100706.06;;;25.06;100.00
76124;BME280;65173;48.066;20.976;2023-08-17T07:23:16;100714.56;;;25.11;100.00
76124;BME280;65173;48.066;20.976;2023-08-17T07:26:19;100713.56;;;24.84;100.00
76124;BME280;65173;48.066;20.976;2023-08-17T07:29:23;100714.69;;;24.90;100.00
76124;BME280;65173;48.066;20.976;2023-08-17T07:32:25;100713.16;;;24.89;100.00
76124;BME280;65173;48.066;20.976;2023-08-17T07:35:28;100710.38;;;24.96;100.00
76124;BME280;65173;48.066;20.976;2023-08-17T07:38:31;100720.22;;;24.76;100.00
76124;BME280;65173;48.066;20.976;2023-08-17T07:41:33;100721.16;;;24.44;100.00
76124;BME280;65173;48.066;20.976;2023-08-17T07:44:35;100729.72;;;24.50;100.00
76124;BME280;65173;48.066;20.976;2023-08-17T07:47:38;100740.69;;;24.29;100.00
76124;BME280;65173;48.066;20.976;2023-08-17T07:50:40;100739.53;;;24.26;100.00
76124;BME280;65173;48.066;20.976;2023-08-17T07:53:43;100735.66;;;24.02;100.00
76124;BME280;65173;48.066;20.976;2023-08-17T07:56:45;100741.50;;;24.08;100.00
76124;BME280;65173;48.066;20.976;2023-08-17T07:59:48;100739.94;;;24.03;100.00
76124;BME280;65173;48.066;20.976;2023-08-17T08:02:50;100743.81;;;24.31;100.00
76124;BME280;65173;48.066;20.976;2023-08-17T08:05:53;100746.44;;;24.52;100.00
76124;BME280;65173;48.066;20.976;2023-08-17T08:08:55;100758.91;;;24.53;100.00
76124;BME280;65173;48.066;20.976;2023-08-17T08:11:58;100764.75;;;24.48;100.00
76124;BME280;65173;48.066;20.976;2023-08-17T08:15:00;100760.03;;;24.55;100.00
76124;BME280;65173;48.066;20.976;2023-08-17T08:18:03;100774.84;;;24.54;100.00
76124;BME280;65173;48.066;20.976;2023-08-17T08:21:06;100776.50;;;24.34;100.00
76124;BME280;65173;48.066;20.976;2023-08-17T08:24:08;100771.81;;;24.20;100.00
76124;BME280;65173;48.066;20.976;2023-08-17T08:27:23;100740.72;;;24.18;100.00
76124;BME280;65173;48.066;20.976;2023-08-17T08:30:27;100713.47;;;24.11;100.00
76124;BME280;65173;48.066;20.976;2023-08-17T08:33:30;100714.31;;;23.86;100.00
76124;BME280;65173;48.066;20.976;2023-08-17T08:36:32;100698.78;;;23.69;100.00
76124;BME280;65173;48.066;20.976;2023-08-17T08:39:48;100696.81;;;23.84;100.00
76124;BME280;65173;48.066;20.976;2023-08-17T08:42:52;100696.38;;;24.03;100.00
76124;BME280;65173;48.066;20.976;2023-08-17T08:45:54;100697.94;;;24.08;100.00
76124;BME280;65173;48.066;20.976;2023-08-17T08:48:57;100726.66;;;24.19;100.00
76124;BME280;65173;48.066;20.976;2023-08-17T08:52:01;100734.97;;;23.80;100.00
76124;BME280;65173;48.066;20.976;2023-08-17T08:55:17;100747.72;;;24.15;100.00
76124;BME280;65173;48.066;20.976;2023-08-17T08:58:21;100744.19;;;24.36;100.00
76124;BME280;65173;48.066;20.976;2023-08-17T09:01:24;100735.06;;;24.68;100.00
76124;BME280;65173;48.066;20.976;2023-08-17T09:04:29;100727.47;;;25.07;100.00
76124;BME280;65173;48.066;20.976;2023-08-17T09:07:32;100737.75;;;25.41;100.00
76124;BME280;65173;48.066;20.976;2023-08-17T09:10:35;100748.91;;;25.57;100.00
76124;BME280;65173;48.066;20.976;2023-08-17T09:13:40;100746.03;;;25.78;100.00
76124;BME280;65173;48.066;20.976;2023-08-17T09:16:42;100733.38;;;25.95;100.00
76124;BME280;65173;48.066;20.976;2023-08-17T09:19:47;100721.50;;;26.43;100.00
76124;BME280;65173;48.066;20.976;2023-08-17T09:22:50;100709.44;;;26.40;100.00
76124;BME280;65173;48.066;20.976;2023-08-17T09:25:56;100702.41;;;26.39;100.00
76124;BME280;65173;48.066;20.976;2023-08-17T09:29:00;100702.38;;;26.70;100.00
76124;BME280;65173;48.066;20.976;2023-08-17T09:32:05;100693.44;;;26.69;100.00
76124;BME280;65173;48.066;20.976;2023-08-17T09:35:08;100681.91;;;26.81;100.00
76124;BME280;65173;48.066;20.976;2023-08-17T09:38:11;100671.34;;;26.83;100.00
76124;BME280;65173;48.066;20.976;2023-08-17T09:41:13;100677.72;;;26.73;100.00
76124;BME280;65173;48.066;20.976;2023-08-17T09:44:16;100682.09;;;26.98;100.00
76124;BME280;65173;48.066;20.976;2023-08-17T09:47:19;100685.84;;;27.30;100.00
76124;BME280;65173;48.066;20.976;2023-08-17T09:50:23;100687.38;;;27.55;100.00
76124;BME280;65173;48.066;20.976;2023-08-17T09:53:27;100680.16;;;27.41;100.00
76124;BME280;65173;48.066;20.976;2023-08-17T09:56:30;100683.97;;;27.47;100.00
76124;BME280;65173;48.066;20.976;2023-08-17T09:59:33;100693.16;;;27.37;100.00
76124;BME280;65173;48.066;20.976;2023-08-17T10:02:43;100692.03;;;27.11;100.00
76124;BME280;65173;48.066;20.976;2023-08-17T10:05:52;100699.31;;;26.94;100.00
76124;BME280;65173;48.066;20.976;2023-08-17T10:08:58;100684.19;;;26.86;100.00
76124;BME280;65173;48.066;20.976;2023-08-17T10:12:06;100681.78;;;26.88;100.00
76124;BME280;65173;48.066;20.976;2023-08-17T10:15:11;100700.94;;;26.61;100.00
76124;BME280;65173;48.066;20.976;2023-08-17T10:25:37;100716.00;;;25.75;100.00
76124;BME280;65173;48.066;20.976;2023-08-17T10:28:41;100717.66;;;25.65;100.00
76124;BME280;65173;48.066;20.976;2023-08-17T10:31:44;100724.00;;;25.48;100.00
76124;BME280;65173;48.066;20.976;2023-08-17T10:34:51;100728.38;;;25.42;100.00
76124;BME280;65173;48.066;20.976;2023-08-17T10:37:54;100732.19;;;25.51;100.00
76124;BME280;65173;48.066;20.976;2023-08-17T10:41:15;100732.59;;;25.46;100.00
76124;BME280;65173;48.066;20.976;2023-08-17T10:44:44;100713.72;;;25.70;100.00
76124;BME280;65173;48.066;20.976;2023-08-17T10:47:47;100708.66;;;25.68;100.00
76124;BME280;65173;48.066;20.976;2023-08-17T10:51:03;100696.78;;;25.85;100.00
76124;BME280;65173;48.066;20.976;2023-08-17T10:54:06;100688.53;;;25.89;100.00
76124;BME280;65173;48.066;20.976;2023-08-17T10:57:38;100700.72;;;25.81;100.00
76124;BME280;65173;48.066;20.976;2023-08-17T11:00:41;100705.28;;;25.94;100.00
76124;BME280;65173;48.066;20.976;2023-08-17T11:03:46;100707.59;;;25.96;100.00
76124;BME280;65173;48.066;20.976;2023-08-17T11:07:01;100698.91;;;26.05;100.00
76124;BME280;65173;48.066;20.976;2023-08-17T11:10:11;100698.63;;;25.96;100.00
76124;BME280;65173;48.066;20.976;2023-08-17T11:13:15;100700.88;;;26.01;100.00
76124;BME280;65173;48.066;20.976;2023-08-17T11:16:17;100692.63;;;26.08;100.00
76124;BME280;65173;48.066;20.976;2023-08-17T11:19:23;100687.88;;;26.15;100.00
76124;BME280;65173;48.066;20.976;2023-08-17T11:22:25;100694.63;;;26.38;100.00
76124;BME280;65173;48.066;20.976;2023-08-17T11:25:28;100698.38;;;26.51;100.00
76124;BME280;65173;48.066;20.976;2023-08-17T11:28:34;100698.78;;;26.15;100.00
76124;BME280;65173;48.066;20.976;2023-08-17T11:31:45;100701.53;;;26.15;100.00
76124;BME280;65173;48.066;20.976;2023-08-17T11:34:52;100694.41;;;25.87;100.00
76124;BME280;65173;48.066;20.976;2023-08-17T11:38:02;100702.53;;;25.94;100.00
76124;BME280;65173;48.066;20.976;2023-08-17T11:41:10;100704.63;;;25.80;100.00
76124;BME280;65173;48.066;20.976;2023-08-17T11:44:18;100699.34;;;25.62;100.00
76124;BME280;65173;48.066;20.976;2023-08-17T11:47:25;100697.44;;;25.55;100.00
76124;BME280;65173;48.066;20.976;2023-08-17T11:50:34;100698.63;;;25.54;100.00
76124;BME280;65173;48.066;20.976;2023-08-17T11:53:41;100694.34;;;25.53;100.00
76124;BME280;65173;48.066;20.976;2023-08-17T11:56:49;100689.25;;;25.55;100.00
76124;BME280;65173;48.066;20.976;2023-08-17T11:59:54;100682.19;;;25.62;100.00
76124;BME280;65173;48.066;20.976;2023-08-17T12:02:57;100683.06;;;25.48;100.00
76124;BME280;65173;48.066;20.976;2023-08-17T12:06:00;100690.84;;;25.49;100.00
76124;BME280;65173;48.066;20.976;2023-08-17T12:09:04;100685.81;;;25.44;100.00
76124;BME280;65173;48.066;20.976;2023-08-17T12:12:07;100687.66;;;25.62;100.00
76124;BME280;65173;48.066;20.976;2023-08-17T12:15:10;100690.81;;;25.56;100.00
76124;BME280;65173;48.066;20.976;2023-08-17T12:18:15;100684.91;;;25.62;100.00
76124;BME280;65173;48.066;20.976;2023-08-17T12:21:21;100668.78;;;25.78;100.00
76124;BME280;65173;48.066;20.976;2023-08-17T12:24:24;100651.56;;;25.81;100.00
76124;BME280;65173;48.066;20.976;2023-08-17T12:27:27;100661.31;;;25.82;100.00
76124;BME280;65173;48.066;20.976;2023-08-17T12:30:31;100667.31;;;25.66;100.00
76124;BME280;65173;48.066;20.976;2023-08-17T12:33:34;100660.38;;;25.96;100.00
76124;BME280;65173;48.066;20.976;2023-08-17T12:36:37;100654.28;;;25.81;100.00
76124;BME280;65173;48.066;20.976;2023-08-17T12:39:39;100659.09;;;25.70;100.00
76124;BME280;65173;48.066;20.976;2023-08-17T12:42:42;100663.44;;;25.64;100.00
76124;BME280;65173;48.066;20.976;2023-08-17T12:45:44;100673.56;;;25.67;100.00
76124;BME280;65173;48.066;20.976;2023-08-17T12:48:47;100666.13;;;25.71;100.00
76124;BME280;65173;48.066;20.976;2023-08-17T12:51:49;100658.69;;;25.71;100.00
76124;BME280;65173;48.066;20.976;2023-08-17T12:54:52;100656.09;;;25.57;100.00
76124;BME280;65173;48.066;20.976;2023-08-17T12:57:54;100650.00;;;25.80;100.00
76124;BME280;65173;48.066;20.976;2023-08-17T13:01:03;100641.97;;;26.00;100.00
76124;BME280;65173;48.066;20.976;2023-08-17T13:04:06;100628.47;;;25.89;100.00
76124;BME280;65173;48.066;20.976;2023-08-17T13:07:08;100634.69;;;25.89;100.00
76124;BME280;65173;48.066;20.976;2023-08-17T13:10:10;100637.78;;;25.91;100.00
76124;BME280;65173;48.066;20.976;2023-08-17T13:13:13;100630.88;;;25.80;100.00
76124;BME280;65173;48.066;20.976;2023-08-17T13:16:15;100630.66;;;25.67;100.00
76124;BME280;65173;48.066;20.976;2023-08-17T13:19:18;100630.13;;;25.79;100.00
76124;BME280;65173;48.066;20.976;2023-08-17T13:22:20;100628.53;;;25.82;100.00
76124;BME280;65173;48.066;20.976;2023-08-17T13:25:23;100627.81;;;25.78;100.00
76124;BME280;65173;48.066;20.976;2023-08-17T13:28:25;100620.69;;;25.84;100.00
76124;BME280;65173;48.066;20.976;2023-08-17T13:31:29;100622.38;;;26.08;100.00
76124;BME280;65173;48.066;20.976;2023-08-17T13:34:31;100616.19;;;26.01;100.00
76124;BME280;65173;48.066;20.976;2023-08-17T13:37:36;100614.13;;;26.12;100.00
76124;BME280;65173;48.066;20.976;2023-08-17T13:40:39;100616.44;;;26.13;100.00
76124;BME280;65173;48.066;20.976;2023-08-17T13:43:42;100613.03;;;26.06;100.00
76124;BME280;65173;48.066;20.976;2023-08-17T13:46:44;100609.88;;;26.07;100.00
76124;BME280;65173;48.066;20.976;2023-08-17T13:49:47;100607.63;;;26.33;100.00
76124;BME280;65173;48.066;20.976;2023-08-17T13:52:49;100606.41;;;26.34;100.00
76124;BME280;65173;48.066;20.976;2023-08-17T13:55:51;100599.00;;;26.34;100.00
76124;BME280;65173;48.066;20.976;2023-08-17T13:58:54;100603.09;;;26.49;100.00
76124;BME280;65173;48.066;20.976;2023-08-17T14:01:56;100604.63;;;26.50;100.00
76124;BME280;65173;48.066;20.976;2023-08-17T14:04:59;100601.66;;;27.15;100.00
76124;BME280;65173;48.066;20.976;2023-08-17T14:08:02;100594.22;;;27.15;100.00
76124;BME280;65173;48.066;20.976;2023-08-17T14:11:06;100597.38;;;27.14;100.00
76124;BME280;65173;48.066;20.976;2023-08-17T14:14:09;100599.34;;;27.13;100.00
76124;BME280;65173;48.066;20.976;2023-08-17T14:17:12;100602.19;;;27.06;100.00
76124;BME280;65173;48.066;20.976;2023-08-17T14:20:14;100605.94;;;27.16;100.00
76124;BME280;65173;48.066;20.976;2023-08-17T14:23:17;100603.69;;;27.11;100.00
76124;BME280;65173;48.066;20.976;2023-08-17T14:26:20;100605.13;;;27.19;100.00
76124;BME280;65173;48.066;20.976;2023-08-17T14:29:22;100602.22;;;27.26;100.00
76124;BME280;65173;48.066;20.976;2023-08-17T14:32:25;100594.31;;;27.31;100.00
76124;BME280;65173;48.066;20.976;2023-08-17T14:35:27;100594.63;;;27.37;100.00
76124;BME280;65173;48.066;20.976;2023-08-17T14:38:30;100590.50;;;27.25;100.00
76124;BME280;65173;48.066;20.976;2023-08-17T14:41:33;100588.47;;;27.29;100.00
76124;BME280;65173;48.066;20.976;2023-08-17T14:44:36;100587.97;;;27.15;100.00
76124;BME280;65173;48.066;20.976;2023-08-17T14:47:38;100584.91;;;27.33;100.00
76124;BME280;65173;48.066;20.976;2023-08-17T14:50:41;100584.75;;;27.20;100.00
76124;BME280;65173;48.066;20.976;2023-08-17T14:53:43;100585.69;;;27.33;100.00
76124;BME280;65173;48.066;20.976;2023-08-17T14:56:45;100585.34;;;27.31;100.00
76124;BME280;65173;48.066;20.976;2023-08-17T14:59:48;100590.03;;;27.30;100.00
76124;BME280;65173;48.066;20.976;2023-08-17T15:02:51;100576.69;;;27.33;100.00
76124;BME280;65173;48.066;20.976;2023-08-17T15:05:54;100571.72;;;27.47;100.00
76124;BME280;65173;48.066;20.976;2023-08-17T15:08:56;100570.00;;;27.57;100.00
76124;BME280;65173;48.066;20.976;2023-08-17T15:11:59;100572.78;;;27.53;100.00
76124;BME280;65173;48.066;20.976;2023-08-17T15:15:01;100572.25;;;27.62;100.00
76124;BME280;65173;48.066;20.976;2023-08-17T15:18:04;100562.66;;;27.50;100.00
76124;BME280;65173;48.066;20.976;2023-08-17T15:21:07;100566.97;;;27.51;100.00
76124;BME280;65173;48.066;20.976;2023-08-17T15:24:09;100561.53;;;27.48;100.00
76124;BME280;65173;48.066;20.976;2023-08-17T15:27:12;100557.19;;;27.50;100.00
76124;BME280;65173;48.066;20.976;2023-08-17T15:30:15;100551.28;;;27.32;100.00
76124;BME280;65173;48.066;20.976;2023-08-17T15:33:18;100549.31;;;27.33;100.00
76124;BME280;65173;48.066;20.976;2023-08-17T15:36:20;100542.59;;;27.17;100.00
76124;BME280;65173;48.066;20.976;2023-08-17T15:39:26;100549.38;;;27.29;100.00
76124;BME280;65173;48.066;20.976;2023-08-17T15:42:28;100546.50;;;27.16;100.00
76124;BME280;65173;48.066;20.976;2023-08-17T15:45:31;100544.31;;;27.08;100.00
76124;BME280;65173;48.066;20.976;2023-08-17T15:48:33;100550.97;;;27.07;100.00